Time;durP1;ratioP1;P1;durP2;ratioP2;P2;SDS_P1;SDS_P2;PMS_P1;PMS_P2;Temp;Humidity;BMP_temperature;BMP_pressure;BME280_temperature;BME280_humidity;BME280_pressure;Samples;Min_cycle;Max_cycle;Signal;HPM_P1;HPM_P2
2024/02/09 00:00:13;;;;;;;21.70;6.03;;;12.00;99.90;;;;;;7282159;19;20271;-77
2024/02/09 00:02:42;;;;;;;21.23;5.63;;;11.90;99.90;;;;;;7284121;19;20263;-77
2024/02/09 00:05:10;;;;;;;20.43;6.03;;;11.80;99.90;;;;;;7284487;19;20694;-77
2024/02/09 00:07:36;;;;;;;19.87;5.97;;;11.80;99.90;;;;;;7280917;19;20183;-77
2024/02/09 00:10:02;;;;;;;22.27;6.30;;;11.90;99.90;;;;;;7285642;19;20657;-77
2024/02/09 00:12:28;;;;;;;23.47;5.77;;;11.80;99.90;;;;;;7282113;19;20205;-77
2024/02/09 00:14:56;;;;;;;19.57;5.37;;;11.70;99.90;;;;;;7282901;19;20644;-77
2024/02/09 00:17:22;;;;;;;16.43;5.40;;;11.70;99.90;;;;;;7284520;19;20193;-77
2024/02/09 00:19:48;;;;;;;21.07;6.20;;;11.80;99.90;;;;;;7283442;19;20184;-77
2024/02/09 00:22:13;;;;;;;18.57;5.77;;;11.80;99.90;;;;;;7293285;19;20203;-78
2024/02/09 00:24:42;;;;;;;18.23;5.07;;;11.80;99.90;;;;;;7304698;19;20843;-77
2024/02/09 00:27:08;;;;;;;22.73;5.77;;;11.70;99.90;;;;;;7282894;19;20217;-78
2024/02/09 00:29:34;;;;;;;17.33;5.50;;;11.80;99.90;;;;;;7284134;19;20208;-77
2024/02/09 00:32:00;;;;;;;18.10;5.50;;;11.70;99.90;;;;;;7283570;19;20203;-77
2024/02/09 00:34:26;;;;;;;15.00;5.07;;;11.70;99.90;;;;;;7282260;19;20259;-77
2024/02/09 00:36:51;;;;;;;16.03;5.13;;;11.60;99.90;;;;;;7283792;19;20195;-79
2024/02/09 00:39:17;;;;;;;19.17;5.00;;;11.60;99.90;;;;;;7282224;19;20201;-76
2024/02/09 00:41:43;;;;;;;19.53;5.63;;;11.60;99.90;;;;;;7304791;19;20197;-76
2024/02/09 00:44:09;;;;;;;18.70;4.93;;;11.60;99.90;;;;;;7284639;19;20196;-77
2024/02/09 00:46:42;;;;;;;15.37;4.40;;;11.60;99.90;;;;;;7283580;19;20208;-77
2024/02/09 00:49:09;;;;;;;16.00;4.27;;;11.60;99.90;;;;;;7284550;19;20189;-78
2024/02/09 00:51:39;;;;;;;17.20;5.17;;;11.60;99.90;;;;;;7284121;19;20200;-77
2024/02/09 00:54:05;;;;;;;16.43;5.10;;;11.60;99.90;;;;;;7281042;19;20221;-77
2024/02/09 00:56:32;;;;;;;16.13;4.50;;;11.70;99.90;;;;;;7283544;19;20213;-77
2024/02/09 00:58:58;;;;;;;15.73;4.63;;;11.70;99.90;;;;;;7281836;19;20825;-77
2024/02/09 01:01:24;;;;;;;15.63;4.20;;;11.60;99.90;;;;;;7282362;19;20216;-76
2024/02/09 01:03:53;;;;;;;13.10;4.03;;;11.60;99.90;;;;;;7283506;19;20895;-76
2024/02/09 01:06:21;;;;;;;15.40;4.37;;;11.60;99.90;;;;;;7282667;19;20741;-77
2024/02/09 01:08:47;;;;;;;14.27;3.80;;;11.60;99.90;;;;;;7281003;19;20208;-76
2024/02/09 01:11:13;;;;;;;12.33;4.00;;;11.50;99.90;;;;;;7303019;19;20204;-77
2024/02/09 02:46:34;;;;;;;12.37;3.67;;;11.30;99.90;;;;;;7285647;19;20196;-79
2024/02/09 03:05:27;;;;;;;13.93;3.53;;;11.50;99.90;;;;;;7185450;19;2004618;-78
2024/02/09 03:07:54;;;;;;;9.30;3.30;;;11.50;99.90;;;;;;7285403;19;20181;-77
2024/02/09 03:10:20;;;;;;;12.43;3.37;;;11.60;99.90;;;;;;7285848;19;20193;-80
2024/02/09 03:12:46;;;;;;;11.80;3.83;;;11.60;99.90;;;;;;7289793;19;20547;-77
2024/02/09 03:15:12;;;;;;;11.60;3.30;;;11.60;99.90;;;;;;7307161;19;20256;-78
2024/02/09 03:17:39;;;;;;;11.90;3.57;;;11.70;99.90;;;;;;7287047;19;20215;-78
2024/02/09 03:20:06;;;;;;;8.57;3.20;;;11.70;99.90;;;;;;7284754;19;20668;-79
2024/02/09 03:22:32;;;;;;;15.27;3.87;;;11.70;99.90;;;;;;7286269;19;20538;-79
2024/02/09 03:25:02;;;;;;;9.80;3.23;;;11.80;99.90;;;;;;7286543;19;20213;-78
2024/02/09 03:27:33;;;;;;;13.10;3.30;;;11.80;99.90;;;;;;7284019;19;20267;-78
2024/02/09 03:30:04;;;;;;;11.00;3.10;;;11.70;99.90;;;;;;7285548;19;20191;-78
2024/02/09 03:32:34;;;;;;;10.33;3.17;;;11.80;99.90;;;;;;7284190;19;20206;-78
2024/02/09 03:35:04;;;;;;;12.63;3.03;;;11.80;99.90;;;;;;7284333;19;20188;-78
2024/02/09 03:37:33;;;;;;;11.97;3.23;;;11.80;99.90;;;;;;7284911;19;20203;-78
2024/02/09 03:40:00;;;;;;;10.37;2.97;;;11.70;99.90;;;;;;7284831;19;20189;-79
2024/02/09 03:42:27;;;;;;;13.03;3.60;;;11.80;99.90;;;;;;7283471;19;20192;-78
2024/02/09 03:44:56;;;;;;;13.77;3.73;;;11.70;99.90;;;;;;7284279;19;20193;-79
2024/02/09 03:47:24;;;;;;;12.77;3.00;;;11.70;99.90;;;;;;7284801;19;20545;-78
2024/02/09 03:49:54;;;;;;;12.97;3.67;;;11.80;99.90;;;;;;7284727;19;20208;-79
2024/02/09 03:52:22;;;;;;;10.00;3.23;;;11.70;99.90;;;;;;7285146;19;20188;-78
2024/02/09 03:54:52;;;;;;;9.67;3.00;;;11.80;99.90;;;;;;7283398;19;20690;-79
2024/02/09 03:57:21;;;;;;;13.50;3.53;;;11.80;99.90;;;;;;7285932;19;20200;-78
2024/02/09 03:59:47;;;;;;;11.83;3.70;;;11.80;99.90;;;;;;7284867;19;20187;-78
2024/02/09 04:02:13;;;;;;;11.23;3.70;;;11.80;99.90;;;;;;7307369;19;20216;-79
2024/02/09 04:04:39;;;;;;;9.80;2.97;;;11.70;99.90;;;;;;7284427;19;20188;-79
2024/02/09 04:07:05;;;;;;;11.80;2.97;;;11.80;99.90;;;;;;7285412;19;20203;-79
2024/02/09 04:09:35;;;;;;;10.23;3.10;;;11.90;99.90;;;;;;7283074;19;20199;-79
2024/02/09 04:12:02;;;;;;;10.97;2.90;;;11.90;99.90;;;;;;7284868;19;20216;-79
2024/02/09 04:14:28;;;;;;;16.93;3.50;;;12.00;99.90;;;;;;7281747;19;20211;-79
2024/02/09 04:16:55;;;;;;;11.33;3.23;;;12.00;99.90;;;;;;7285016;19;20260;-78
2024/02/09 04:19:22;;;;;;;13.77;3.80;;;12.00;99.90;;;;;;7283555;19;20198;-78
2024/02/09 04:21:47;;;;;;;11.17;2.90;;;12.00;99.90;;;;;;7283507;19;20654;-77
2024/02/09 04:24:19;;;;;;;14.77;3.13;;;12.00;99.90;;;;;;7305338;19;20190;-79
2024/02/09 04:26:48;;;;;;;13.80;3.30;;;12.00;99.90;;;;;;7278327;19;20188;-78
2024/02/09 04:29:15;;;;;;;12.83;3.30;;;12.10;99.90;;;;;;7305338;19;20199;-79
2024/02/09 04:31:47;;;;;;;12.13;2.77;;;12.10;99.90;;;;;;7284199;19;20189;-79
2024/02/09 04:34:13;;;;;;;10.67;2.73;;;12.20;99.90;;;;;;7282955;19;20191;-78
2024/02/09 04:36:41;;;;;;;10.23;2.97;;;12.20;99.90;;;;;;7285501;19;20267;-79
2024/02/09 04:39:10;;;;;;;13.67;3.13;;;12.20;99.90;;;;;;7282265;19;20675;-78
2024/02/09 04:41:44;;;;;;;12.97;3.03;;;12.20;99.90;;;;;;7281969;19;20186;-78
2024/02/09 04:44:10;;;;;;;10.97;2.77;;;12.10;99.90;;;;;;7285320;19;20196;-78
2024/02/09 04:46:38;;;;;;;12.63;2.90;;;12.10;99.90;;;;;;7283115;19;20647;-78
2024/02/09 04:49:08;;;;;;;10.87;3.00;;;12.20;99.90;;;;;;7282685;19;20574;-79
2024/02/09 04:51:38;;;;;;;12.37;3.20;;;12.20;99.90;;;;;;7280778;19;20207;-77
2024/02/09 04:54:06;;;;;;;10.87;2.80;;;12.20;99.90;;;;;;7280297;19;20204;-78
2024/02/09 04:56:32;;;;;;;11.17;2.60;;;12.30;99.90;;;;;;7282191;19;20659;-77
2024/02/09 04:58:59;;;;;;;8.03;2.57;;;12.30;99.90;;;;;;7280809;19;20192;-78
2024/02/09 05:01:29;;;;;;;9.20;2.60;;;12.30;99.90;;;;;;7280941;19;20222;-78
2024/02/09 05:04:02;;;;;;;8.80;2.47;;;12.20;99.90;;;;;;7282376;19;20549;-78
2024/02/09 05:06:30;;;;;;;9.00;2.50;;;12.30;99.90;;;;;;7283624;19;20666;-78
2024/02/09 05:08:57;;;;;;;9.17;2.57;;;12.20;99.90;;;;;;7283141;19;20199;-78
2024/02/09 05:11:28;;;;;;;9.67;2.50;;;12.20;99.90;;;;;;7282893;19;20200;-78
2024/02/09 05:13:54;;;;;;;11.83;2.63;;;12.20;99.90;;;;;;7283505;19;20218;-79
2024/02/09 05:16:20;;;;;;;5.80;2.30;;;12.20;99.90;;;;;;7281401;19;20290;-78
2024/02/09 05:18:49;;;;;;;13.33;2.90;;;12.30;99.90;;;;;;7289305;19;20177;-78
2024/02/09 05:21:14;;;;;;;9.07;2.57;;;12.30;99.90;;;;;;7305061;19;20193;-78
2024/02/09 05:23:40;;;;;;;9.13;2.83;;;12.30;99.90;;;;;;7283944;19;20189;-78
2024/02/09 05:26:12;;;;;;;10.40;2.47;;;12.30;99.90;;;;;;7282772;19;20213;-78
2024/02/09 05:28:40;;;;;;;10.23;2.30;;;12.30;99.90;;;;;;7287783;19;20260;-78
2024/02/09 05:31:11;;;;;;;10.90;2.80;;;12.40;99.90;;;;;;7289378;19;20182;-78
2024/02/09 05:33:37;;;;;;;12.00;2.67;;;12.50;99.90;;;;;;7290124;19;20188;-78
2024/02/09 05:36:03;;;;;;;9.07;2.53;;;12.50;99.90;;;;;;7288410;19;20204;-79
2024/02/09 05:38:35;;;;;;;10.53;3.00;;;12.50;99.90;;;;;;7287382;19;20644;-78
2024/02/09 05:41:02;;;;;;;13.20;2.37;;;12.50;99.90;;;;;;7285870;19;20270;-78
2024/02/09 05:43:29;;;;;;;14.73;3.57;;;12.40;99.90;;;;;;7289186;19;20200;-78
2024/02/09 05:45:55;;;;;;;6.90;2.30;;;12.50;99.90;;;;;;7287395;19;20189;-78
2024/02/09 05:48:21;;;;;;;8.17;2.13;;;12.40;99.90;;;;;;7285143;19;20208;-77
2024/02/09 05:50:48;;;;;;;8.93;2.27;;;12.40;99.90;;;;;;7288689;19;20204;-77
2024/02/09 05:53:14;;;;;;;7.27;2.00;;;12.50;99.90;;;;;;7310943;19;20177;-79
2024/02/09 05:55:40;;;;;;;8.93;2.50;;;12.50;99.90;;;;;;7287749;19;20272;-79
2024/02/09 05:58:06;;;;;;;11.10;2.33;;;12.50;99.90;;;;;;7287174;19;20199;-78
2024/02/09 06:00:32;;;;;;;9.47;2.20;;;12.60;99.90;;;;;;7287684;19;20292;-78
2024/02/09 06:02:58;;;;;;;7.93;2.57;;;12.50;99.90;;;;;;7287200;19;20256;-79
2024/02/09 06:05:24;;;;;;;10.30;2.57;;;12.50;99.90;;;;;;7289027;19;20660;-79
2024/02/09 06:07:50;;;;;;;6.37;2.10;;;12.50;99.90;;;;;;7285335;19;20208;-78
2024/02/09 06:10:16;;;;;;;6.87;2.00;;;12.40;99.90;;;;;;7302935;19;20197;-79
2024/02/09 06:12:43;;;;;;;8.90;2.40;;;12.40;99.90;;;;;;7304891;19;20184;-78
2024/02/09 06:15:10;;;;;;;9.37;2.83;;;12.30;99.90;;;;;;7286506;19;20281;-79
2024/02/09 06:17:40;;;;;;;9.70;2.40;;;12.10;99.90;;;;;;7287165;19;20249;-81
2024/02/09 06:20:07;;;;;;;11.23;2.50;;;12.10;99.90;;;;;;7287116;19;20317;-79
2024/02/09 06:22:34;;;;;;;12.77;2.87;;;12.00;99.90;;;;;;7286741;19;20188;-78
2024/02/09 06:25:00;;;;;;;9.43;2.73;;;12.10;99.90;;;;;;7290206;19;20189;-77
2024/02/09 06:27:27;;;;;;;11.83;2.73;;;12.10;99.90;;;;;;7286695;19;20198;-77
2024/02/09 06:29:54;;;;;;;10.13;2.60;;;12.10;99.90;;;;;;7288335;19;20649;-77
2024/02/09 06:32:22;;;;;;;7.50;2.00;;;12.20;99.90;;;;;;7284135;19;20252;-77
2024/02/09 06:34:48;;;;;;;10.53;2.33;;;12.20;99.90;;;;;;7288227;19;20192;-77
2024/02/09 06:37:17;;;;;;;8.87;2.37;;;12.30;99.90;;;;;;7309844;19;20219;-80
2024/02/09 06:39:43;;;;;;;10.77;2.60;;;12.40;99.90;;;;;;7287709;19;20185;-79
2024/02/09 06:42:08;;;;;;;9.43;2.40;;;12.40;99.90;;;;;;7285032;19;20283;-78
2024/02/09 06:44:34;;;;;;;12.73;2.43;;;12.50;99.90;;;;;;7300093;19;20260;-78
2024/02/09 06:47:00;;;;;;;10.83;2.17;;;12.60;99.90;;;;;;7285805;19;20185;-77
2024/02/09 06:49:28;;;;;;;11.37;2.50;;;12.50;99.90;;;;;;7286199;19;20312;-77
2024/02/09 06:51:54;;;;;;;6.37;2.30;;;12.60;99.90;;;;;;7286698;19;20260;-79
2024/02/09 06:54:22;;;;;;;11.27;2.67;;;12.60;99.90;;;;;;7287200;19;20201;-81
2024/02/09 06:56:48;;;;;;;10.73;2.07;;;12.60;99.90;;;;;;7286460;19;20185;-79
2024/02/09 06:59:14;;;;;;;8.90;2.20;;;12.60;99.90;;;;;;7307461;19;20554;-79
2024/02/09 07:01:43;;;;;;;9.40;2.50;;;12.70;99.90;;;;;;7285707;19;20189;-80
2024/02/09 07:04:16;;;;;;;9.77;2.30;;;12.70;99.90;;;;;;7286129;19;20196;-80
2024/02/09 07:06:43;;;;;;;8.97;2.40;;;12.70;99.90;;;;;;7285266;19;20189;-79
2024/02/09 07:09:13;;;;;;;9.83;2.67;;;12.80;99.90;;;;;;7285484;19;20246;-79
2024/02/09 07:11:38;;;;;;;7.53;2.00;;;12.90;99.90;;;;;;7286800;19;20193;-79
2024/02/09 07:14:04;;;;;;;11.20;2.70;;;12.90;99.90;;;;;;7286178;19;20209;-79
2024/02/09 07:16:33;;;;;;;8.57;1.90;;;12.90;99.90;;;;;;7286410;19;20194;-79
2024/02/09 07:18:59;;;;;;;7.80;2.20;;;12.90;99.90;;;;;;7285422;19;20268;-79
2024/02/09 07:21:24;;;;;;;10.70;2.57;;;12.90;99.90;;;;;;7285533;19;20544;-79
2024/02/09 07:23:52;;;;;;;7.27;1.93;;;12.90;99.90;;;;;;7285646;19;20299;-79
2024/02/09 07:26:18;;;;;;;9.13;2.20;;;12.90;99.90;;;;;;7286405;19;20197;-79
2024/02/09 07:28:45;;;;;;;10.17;2.00;;;12.90;99.90;;;;;;7305929;19;20588;-79
2024/02/09 07:31:14;;;;;;;7.03;1.70;;;12.80;99.90;;;;;;7287713;19;20272;-79
2024/02/09 07:33:40;;;;;;;6.07;2.13;;;12.80;99.90;;;;;;7284927;19;20193;-80
2024/02/09 07:36:10;;;;;;;6.70;2.17;;;12.80;99.90;;;;;;7286304;19;20230;-79
2024/02/09 07:38:36;;;;;;;9.97;1.83;;;12.80;99.90;;;;;;7285850;19;20218;-79
2024/02/09 07:41:01;;;;;;;6.60;2.03;;;12.80;99.90;;;;;;7284561;19;20201;-79
2024/02/09 07:43:27;;;;;;;5.77;1.90;;;12.80;99.90;;;;;;7285981;19;20202;-79
2024/02/09 07:45:53;;;;;;;9.60;2.43;;;12.80;99.90;;;;;;7284906;19;20301;-79
2024/02/09 07:48:19;;;;;;;7.37;2.03;;;12.70;99.90;;;;;;7282964;19;20560;-79
2024/02/09 07:50:45;;;;;;;8.23;1.87;;;12.70;99.90;;;;;;7306463;19;20696;-80
2024/02/09 07:53:14;;;;;;;7.90;2.10;;;12.70;99.90;;;;;;7285415;19;20208;-79
2024/02/09 07:55:40;;;;;;;8.27;2.00;;;12.70;99.90;;;;;;7284273;19;20189;-79
2024/02/09 07:58:06;;;;;;;11.50;2.43;;;12.80;99.90;;;;;;7284669;19;20540;-79
2024/02/09 08:00:32;;;;;;;9.00;2.40;;;12.80;99.90;;;;;;7285435;19;20201;-79
2024/02/09 08:02:58;;;;;;;8.03;2.00;;;12.80;99.90;;;;;;7283414;19;20200;-79
2024/02/09 08:05:24;;;;;;;9.63;2.40;;;12.80;99.90;;;;;;7285607;19;20216;-79
2024/02/09 08:07:52;;;;;;;9.33;2.20;;;12.80;99.90;;;;;;7282974;19;20193;-79
2024/02/09 08:10:18;;;;;;;8.50;2.50;;;12.90;99.90;;;;;;7285009;19;20215;-78
2024/02/09 08:12:47;;;;;;;10.57;2.07;;;12.80;99.90;;;;;;7306070;19;20974;-79
2024/02/09 08:15:13;;;;;;;14.10;2.47;;;12.80;99.90;;;;;;7284368;19;20193;-78
2024/02/09 08:17:45;;;;;;;6.83;1.90;;;12.80;99.90;;;;;;7285133;19;20228;-79
2024/02/09 08:20:11;;;;;;;7.33;2.10;;;12.80;99.90;;;;;;7285260;19;20185;-80
2024/02/09 08:22:43;;;;;;;6.80;2.07;;;12.90;99.90;;;;;;7306253;19;20205;-79
2024/02/09 08:25:09;;;;;;;8.33;2.40;;;12.90;99.90;;;;;;7300755;19;20193;-78
2024/02/09 08:27:35;;;;;;;7.40;2.17;;;13.00;99.90;;;;;;7294056;19;20204;-77
2024/02/09 08:30:01;;;;;;;7.07;1.90;;;13.00;99.90;;;;;;7287632;19;20193;-78
2024/02/09 08:32:27;;;;;;;9.87;2.07;;;13.20;99.90;;;;;;7281973;19;20890;-77
2024/02/09 08:34:53;;;;;;;7.50;1.90;;;13.30;99.90;;;;;;7280750;19;20206;-78
2024/02/09 08:37:24;;;;;;;8.80;2.57;;;13.40;99.90;;;;;;7282158;19;20201;-77
2024/02/09 08:39:50;;;;;;;8.80;2.07;;;13.50;99.90;;;;;;7282093;19;20205;-77
2024/02/09 08:42:16;;;;;;;8.00;2.30;;;13.50;99.90;;;;;;7300399;19;20198;-77
2024/02/09 08:44:42;;;;;;;9.23;2.10;;;13.60;99.90;;;;;;7297670;19;20189;-78
2024/02/09 08:47:10;;;;;;;6.90;1.90;;;13.70;99.90;;;;;;7282847;19;20201;-78
2024/02/09 08:49:36;;;;;;;7.57;1.90;;;13.70;99.90;;;;;;7283417;19;20230;-78
2024/02/09 08:52:03;;;;;;;7.27;1.80;;;13.70;99.90;;;;;;7283565;19;20218;-78
2024/02/09 08:54:29;;;;;;;8.77;1.70;;;13.80;99.90;;;;;;7282193;19;20194;-77
2024/02/09 08:56:56;;;;;;;9.10;2.50;;;13.90;99.90;;;;;;7282387;19;20189;-78
2024/02/09 08:59:22;;;;;;;10.40;2.77;;;13.80;99.90;;;;;;7282509;19;20724;-78
2024/02/09 09:01:48;;;;;;;7.37;1.90;;;13.70;99.90;;;;;;7287863;19;20199;-77
2024/02/09 09:04:14;;;;;;;7.73;1.90;;;13.80;99.90;;;;;;7313111;19;20556;-78
2024/02/09 09:06:40;;;;;;;9.73;1.93;;;13.80;99.90;;;;;;7288781;19;20195;-78
2024/02/09 09:09:08;;;;;;;6.40;1.63;;;13.80;99.90;;;;;;7288834;19;20228;-78
2024/02/09 09:11:35;;;;;;;10.80;2.53;;;13.90;99.90;;;;;;7290630;19;20188;-77
2024/02/09 09:14:00;;;;;;;11.47;2.40;;;13.80;99.90;;;;;;7287709;19;20213;-77
2024/02/09 09:16:27;;;;;;;10.90;2.40;;;13.80;99.90;;;;;;7288986;19;20248;-77
2024/02/09 09:18:53;;;;;;;8.07;2.00;;;13.80;99.90;;;;;;7288877;19;20325;-77
2024/02/09 09:21:18;;;;;;;10.30;2.20;;;13.90;99.90;;;;;;7288179;19;20954;-77
2024/02/09 09:23:45;;;;;;;9.20;2.17;;;14.00;99.90;;;;;;7310665;19;20551;-78
2024/02/09 09:26:11;;;;;;;9.93;2.37;;;14.10;99.90;;;;;;7288573;19;20661;-78
2024/02/09 09:28:36;;;;;;;8.10;2.10;;;14.20;99.90;;;;;;7287650;19;20210;-78
2024/02/09 09:31:02;;;;;;;7.07;1.90;;;14.30;99.90;;;;;;7288797;19;20194;-78
2024/02/09 09:33:29;;;;;;;7.07;1.77;;;14.40;99.90;;;;;;7288933;19;20201;-78
2024/02/09 09:35:55;;;;;;;8.37;2.80;;;14.40;99.90;;;;;;7288925;19;20254;-79
2024/02/09 09:38:22;;;;;;;9.37;2.30;;;14.40;99.90;;;;;;7288538;19;20203;-77
2024/02/09 09:40:52;;;;;;;7.47;2.10;;;14.30;99.90;;;;;;7292635;19;20210;-78
2024/02/09 09:43:21;;;;;;;9.33;2.20;;;14.20;99.90;;;;;;7294269;19;20193;-78
2024/02/09 09:45:56;;;;;;;9.07;2.50;;;14.30;99.90;;;;;;7294719;19;20190;-78
2024/02/09 09:48:23;;;;;;;9.27;2.50;;;14.50;99.90;;;;;;7287578;19;20596;-78
2024/02/09 09:50:52;;;;;;;8.63;2.40;;;14.60;99.90;;;;;;7287580;19;20201;-77
2024/02/09 09:53:22;;;;;;;8.37;2.30;;;14.90;99.90;;;;;;7287560;19;20192;-77
2024/02/09 09:55:49;;;;;;;9.67;2.60;;;15.00;99.90;;;;;;7288233;19;20198;-77
2024/02/09 09:58:15;;;;;;;7.63;2.13;;;14.80;99.90;;;;;;7311767;19;20261;-78
2024/02/09 10:00:42;;;;;;;7.17;1.87;;;14.90;99.90;;;;;;7291361;19;20199;-79
2024/02/09 10:03:08;;;;;;;9.70;2.40;;;15.00;99.90;;;;;;7295612;19;20258;-79
2024/02/09 10:05:37;;;;;;;10.37;2.40;;;15.00;99.90;;;;;;7293400;19;20199;-78
2024/02/09 10:08:03;;;;;;;9.73;2.50;;;14.90;99.90;;;;;;7283722;19;20284;-78
2024/02/09 10:10:29;;;;;;;13.57;2.63;;;15.00;99.90;;;;;;7286036;19;20664;-78
2024/02/09 10:13:08;;;;;;;7.60;2.00;;;15.00;99.90;;;;;;7285361;19;20669;-79
2024/02/09 10:15:34;;;;;;;7.87;2.33;;;15.10;99.90;;;;;;7285373;19;20214;-78
2024/02/09 10:18:01;;;;;;;10.93;2.20;;;15.20;99.90;;;;;;7287540;19;20195;-77
2024/02/09 10:20:29;;;;;;;10.97;2.40;;;15.10;99.90;;;;;;7287321;19;20191;-78
2024/02/09 10:22:54;;;;;;;10.67;2.50;;;15.10;99.90;;;;;;7287801;19;20194;-78
2024/02/09 10:25:21;;;;;;;10.47;3.00;;;15.30;99.90;;;;;;7288491;19;20198;-78
2024/02/09 10:27:50;;;;;;;8.07;2.47;;;15.30;99.90;;;;;;7297660;19;20196;-78
2024/02/09 10:30:17;;;;;;;8.50;2.10;;;15.20;99.90;;;;;;7304610;19;20219;-78
2024/02/09 10:32:43;;;;;;;10.73;2.30;;;15.10;99.90;;;;;;7309875;19;20195;-78
2024/02/09 10:35:08;;;;;;;8.83;2.10;;;15.10;99.90;;;;;;7285803;19;20216;-78
2024/02/09 10:37:34;;;;;;;9.30;2.10;;;15.20;99.90;;;;;;7287812;19;20185;-78
2024/02/09 10:40:00;;;;;;;13.07;2.30;;;15.20;99.90;;;;;;7288317;19;20548;-78
2024/02/09 10:42:27;;;;;;;5.93;1.97;;;15.20;99.90;;;;;;7286047;19;20196;-78
2024/02/09 10:44:54;;;;;;;6.80;2.10;;;15.30;99.90;;;;;;7287826;19;20247;-78
2024/02/09 10:47:26;;;;;;;10.03;2.37;;;15.40;99.90;;;;;;7286302;19;20191;-78
2024/02/09 10:49:57;;;;;;;9.50;1.80;;;15.60;99.90;;;;;;7287108;19;20980;-78
2024/02/09 10:52:25;;;;;;;12.60;2.57;;;15.90;99.90;;;;;;7288887;19;20199;-78
2024/02/09 10:54:56;;;;;;;10.73;2.70;;;16.30;99.90;;;;;;7285629;19;20192;-78
2024/02/09 10:57:25;;;;;;;6.97;2.07;;;16.30;99.90;;;;;;7288090;19;20612;-78
2024/02/09 10:59:51;;;;;;;9.77;2.10;;;16.50;99.90;;;;;;7285471;19;20294;-78
2024/02/09 11:02:18;;;;;;;6.33;2.20;;;16.40;99.90;;;;;;7300095;19;20196;-77
2024/02/09 11:04:44;;;;;;;8.80;2.17;;;16.30;99.90;;;;;;7310184;19;20293;-78
2024/02/09 11:07:14;;;;;;;8.50;2.37;;;16.10;99.90;;;;;;7288059;19;20185;-78
2024/02/09 11:09:43;;;;;;;10.47;2.37;;;15.90;99.90;;;;;;7289560;19;20280;-78
2024/02/09 11:12:12;;;;;;;9.87;2.50;;;15.60;99.90;;;;;;7291571;19;20654;-78
2024/02/09 11:14:38;;;;;;;10.17;2.40;;;15.60;99.90;;;;;;7289479;19;20205;-78
2024/02/09 11:17:08;;;;;;;10.17;2.53;;;15.60;99.90;;;;;;7286443;19;20687;-78
2024/02/09 11:19:41;;;;;;;9.20;2.70;;;15.60;99.90;;;;;;7283927;19;20196;-78
2024/02/09 11:22:11;;;;;;;10.70;2.73;;;15.60;99.90;;;;;;7284101;19;20215;-78
2024/02/09 11:24:37;;;;;;;10.27;2.73;;;15.60;99.90;;;;;;7286705;19;20328;-78
2024/02/09 11:27:04;;;;;;;9.67;2.37;;;15.60;99.90;;;;;;7283641;19;20204;-78
2024/02/09 11:29:32;;;;;;;8.17;2.30;;;15.50;99.90;;;;;;7284722;19;20196;-79
2024/02/09 11:32:02;;;;;;;9.57;2.07;;;15.60;99.90;;;;;;7285020;19;20193;-78
2024/02/09 11:34:30;;;;;;;11.93;2.70;;;15.30;99.90;;;;;;7284245;19;20193;-78
2024/02/09 11:37:00;;;;;;;8.77;2.43;;;15.30;99.90;;;;;;7283957;19;20669;-78
2024/02/09 11:39:35;;;;;;;11.63;2.90;;;15.30;99.90;;;;;;7283229;19;20573;-78
2024/02/09 11:42:05;;;;;;;7.00;2.40;;;15.10;99.90;;;;;;7281989;19;20195;-79
2024/02/09 11:44:32;;;;;;;8.87;2.40;;;15.10;99.90;;;;;;7283397;19;20256;-78
2024/02/09 11:46:58;;;;;;;8.70;2.77;;;15.10;99.90;;;;;;7284160;19;20190;-78
2024/02/09 11:49:24;;;;;;;8.97;2.77;;;15.30;99.90;;;;;;7282394;19;20204;-78
2024/02/09 11:51:50;;;;;;;10.70;2.93;;;15.50;99.90;;;;;;7284828;19;20211;-78
2024/02/09 11:54:16;;;;;;;13.77;3.57;;;15.50;99.90;;;;;;7304213;19;20304;-78
2024/02/09 11:56:45;;;;;;;11.97;3.53;;;15.60;99.90;;;;;;7284022;19;20872;-78
2024/02/09 11:59:11;;;;;;;13.77;3.70;;;15.60;99.90;;;;;;7282947;19;20188;-78
2024/02/09 12:01:40;;;;;;;12.10;3.20;;;15.70;99.90;;;;;;7284549;19;20213;-78
2024/02/09 12:04:06;;;;;;;8.43;2.67;;;15.50;99.90;;;;;;7285410;19;20594;-78
2024/02/09 12:06:31;;;;;;;12.60;3.43;;;15.60;99.90;;;;;;7285456;19;20202;-78
2024/02/09 12:08:57;;;;;;;10.30;3.43;;;15.70;99.90;;;;;;7283835;19;20662;-78
2024/02/09 12:11:23;;;;;;;10.47;3.10;;;15.90;99.90;;;;;;7283554;19;20240;-78
2024/02/09 12:13:50;;;;;;;10.23;2.60;;;16.20;99.90;;;;;;7283804;19;20190;-78
2024/02/09 12:16:19;;;;;;;17.80;4.73;;;16.20;99.90;;;;;;7306485;19;20189;-79
2024/02/09 12:18:46;;;;;;;12.50;2.67;;;16.30;99.90;;;;;;7284823;19;20186;-78
2024/02/09 12:21:15;;;;;;;9.87;1.83;;;16.40;99.90;;;;;;7282903;19;20249;-78
2024/02/09 12:23:41;;;;;;;12.33;2.23;;;16.40;99.90;;;;;;7284244;19;20207;-78
2024/02/09 12:26:08;;;;;;;7.83;1.60;;;16.40;99.90;;;;;;7283097;19;20202;-78
2024/02/09 12:28:35;;;;;;;8.77;1.83;;;16.20;99.90;;;;;;7282496;19;20526;-78
2024/02/09 12:31:08;;;;;;;8.27;1.63;;;16.10;99.90;;;;;;7284102;19;20199;-79
2024/02/09 12:33:44;;;;;;;7.23;1.93;;;16.00;99.90;;;;;;7283487;19;20206;-79
2024/02/09 12:36:13;;;;;;;11.37;2.13;;;16.10;99.90;;;;;;7282997;19;20188;-78
2024/02/09 12:38:40;;;;;;;10.60;2.40;;;15.90;99.90;;;;;;7284700;19;20216;-78
2024/02/09 12:41:09;;;;;;;12.20;2.70;;;15.80;99.90;;;;;;7282420;19;20642;-79
2024/02/09 12:43:36;;;;;;;11.17;2.80;;;15.70;99.90;;;;;;7283910;19;20636;-78
2024/02/09 12:46:04;;;;;;;7.73;2.20;;;15.70;99.90;;;;;;7283180;19;20652;-78
2024/02/09 12:48:31;;;;;;;11.00;2.60;;;15.50;99.90;;;;;;7281860;19;20202;-78
2024/02/09 12:50:57;;;;;;;12.50;3.10;;;15.60;99.90;;;;;;7283867;19;20231;-78
2024/02/09 12:53:26;;;;;;;11.70;3.20;;;15.60;99.90;;;;;;7283200;19;20659;-78
2024/02/09 12:55:52;;;;;;;9.77;2.70;;;15.60;99.90;;;;;;7282645;19;20192;-78
2024/02/09 12:58:22;;;;;;;8.10;2.50;;;15.50;99.90;;;;;;7293258;19;21058;-78
2024/02/09 13:00:49;;;;;;;12.60;3.30;;;15.40;99.90;;;;;;7281984;19;20193;-78
2024/02/09 13:03:15;;;;;;;9.07;1.80;;;15.40;99.90;;;;;;7305349;19;20188;-78
2024/02/09 13:05:41;;;;;;;8.57;2.33;;;15.50;99.90;;;;;;7283740;19;20188;-78
2024/02/09 13:08:09;;;;;;;5.67;1.70;;;15.70;99.90;;;;;;7282229;19;20679;-78
2024/02/09 13:10:35;;;;;;;6.17;1.73;;;15.80;99.90;;;;;;7282499;19;20263;-78
2024/02/09 13:13:05;;;;;;;6.50;2.03;;;15.70;99.90;;;;;;7281676;19;20196;-78
2024/02/09 13:15:32;;;;;;;7.23;1.77;;;15.60;99.90;;;;;;7281811;19;20191;-78
2024/02/09 13:17:58;;;;;;;10.50;2.23;;;15.50;99.90;;;;;;7282786;19;20200;-78
2024/02/09 13:20:24;;;;;;;7.13;1.63;;;15.50;99.90;;;;;;7281563;19;20192;-78
2024/02/09 13:22:49;;;;;;;6.27;1.80;;;15.60;99.90;;;;;;7281627;19;20196;-78
2024/02/09 13:25:16;;;;;;;10.07;2.43;;;15.60;99.90;;;;;;7304276;19;20214;-78
2024/02/09 13:27:45;;;;;;;7.93;2.00;;;15.70;99.90;;;;;;7281277;19;20222;-78
2024/02/09 13:30:17;;;;;;;9.83;2.00;;;15.70;99.90;;;;;;7282514;19;20305;-78
2024/02/09 13:32:43;;;;;;;6.17;2.00;;;15.60;99.90;;;;;;7283481;19;20214;-78
2024/02/09 13:35:12;;;;;;;7.97;2.00;;;15.50;99.90;;;;;;7281904;19;20199;-78
2024/02/09 13:37:44;;;;;;;5.93;1.57;;;15.70;99.90;;;;;;7281750;19;20624;-78
2024/02/09 13:40:16;;;;;;;5.73;1.80;;;15.70;99.90;;;;;;7280022;19;20208;-78
2024/02/09 13:42:47;;;;;;;4.60;1.70;;;15.80;99.90;;;;;;7283345;19;20257;-79
2024/02/09 13:45:25;;;;;;;5.80;1.70;;;16.00;99.90;;;;;;7285638;19;20192;-78
2024/02/09 13:47:55;;;;;;;5.80;1.80;;;16.00;99.90;;;;;;7261458;19;20188;-78
2024/02/09 13:50:24;;;;;;;4.73;1.53;;;16.20;99.90;;;;;;7288123;19;20205;-78
2024/02/09 13:52:50;;;;;;;4.77;1.70;;;16.10;99.90;;;;;;7296064;19;20723;-77
2024/02/09 13:55:17;;;;;;;10.23;2.30;;;15.90;99.90;;;;;;7319366;19;20205;-77
2024/02/09 13:57:48;;;;;;;6.60;1.60;;;15.90;99.90;;;;;;7290727;19;20197;-78
2024/02/09 14:00:19;;;;;;;10.57;3.70;;;16.00;99.90;;;;;;7291084;19;20281;-78
2024/02/09 14:02:45;;;;;;;13.67;2.10;;;16.00;99.90;;;;;;7290743;19;20185;-78
2024/02/09 14:05:11;;;;;;;9.60;2.33;;;15.80;99.90;;;;;;7289145;19;20241;-78
2024/02/09 14:07:40;;;;;;;7.23;1.83;;;15.60;99.90;;;;;;7287564;19;20204;-78
2024/02/09 14:10:11;;;;;;;6.20;1.83;;;15.40;99.90;;;;;;7288952;19;20605;-78
2024/02/09 14:12:38;;;;;;;7.13;1.87;;;15.20;99.90;;;;;;7287242;19;20202;-78
2024/02/09 14:15:04;;;;;;;8.67;1.83;;;15.10;99.90;;;;;;7287184;19;20196;-78
2024/02/09 14:17:31;;;;;;;4.53;1.70;;;15.00;99.90;;;;;;7287839;19;20559;-78
2024/02/09 14:20:00;;;;;;;10.00;2.27;;;15.10;99.90;;;;;;7287063;19;20190;-77
2024/02/09 14:22:26;;;;;;;7.07;1.80;;;14.90;99.90;;;;;;7285264;19;20239;-77
2024/02/09 14:24:52;;;;;;;8.37;1.83;;;14.80;99.90;;;;;;7289061;19;20187;-78
2024/02/09 14:27:18;;;;;;;6.90;1.97;;;14.80;99.90;;;;;;7294073;19;20223;-77
2024/02/09 14:29:46;;;;;;;8.33;1.63;;;14.80;99.90;;;;;;7306325;19;20227;-78
2024/02/09 14:32:13;;;;;;;7.10;1.93;;;14.90;99.90;;;;;;7287661;19;20190;-77